Ruth Borchard — V7AL8 — position and weather

sailwx.info

Track history (hours):
 
Tides and Currents Weather Stations Pressure Air Temp Water Temp Dewpoint Dewpoint Depression Visibility Wind Speed Wind Dir Waves Ship Positions

Ruth Borchard

Last reported at 2017-Nov-16 14:32 UTC. Time now 2017-Nov-17 20:52 UTC.
Position N 37°28' E 023°52'.

Length 159 m; draft 7.8 m.

Type: Ship (hazmat cat A). MMSI: 538005024.

Date/timePositionNaut miles runAvg speedWind from/ knotsBaromVisibWave heightAir tempDewpointWater temp
2017-Nov-16 14:32N 37°28' E 023°52'116.0
2017-Nov-16 14:29N 37°29' E 023°51'816.0
2017-Nov-16 14:00N 37°35' E 023°46'816.2
2017-Nov-16 13:31N 37°42' E 023°41'816.3
2017-Nov-16 13:01N 37°50' E 023°37'713.7
2017-Nov-16 12:30N 37°56' E 023°36'1 1.7
2017-Nov-16 12:00N 37°57' E 023°36'0 0.0
2017-Nov-16 11:30N 37°57' E 023°36'0 0.0
2017-Nov-16 11:00N 37°57' E 023°36'0 0.0
2017-Nov-16 10:27N 37°57' E 023°36'0 0.0
2017-Nov-16 10:00N 37°57' E 023°36'0 0.0
2017-Nov-16 09:30N 37°57' E 023°36'0 0.0
2017-Nov-16 09:00N 37°57' E 023°36'0 0.0
2017-Nov-16 08:30N 37°57' E 023°36'0 0.0
2017-Nov-16 08:00N 37°57' E 023°36'0 0.0
2017-Nov-16 07:30N 37°57' E 023°36'0 0.0
2017-Nov-16 07:00N 37°57' E 023°36'0 0.0
2017-Nov-16 06:30N 37°57' E 023°36'1 2.9
2017-Nov-16 06:00N 37°56' E 023°36'0 0.3
2017-Nov-16 05:30N 37°56' E 023°36'3 5.1
2017-Nov-16 05:00N 37°54' E 023°35'0 0.6
2017-Nov-16 04:30N 37°54' E 023°35'0 0.9
2017-Nov-16 04:00N 37°53' E 023°36'1 1.1
2017-Nov-16 03:31N 37°53' E 023°36'3 5.4
2017-Nov-16 03:00N 37°51' E 023°38'4 8.4
2017-Nov-16 02:30N 37°47' E 023°41'4 8.0
2017-Nov-16 02:00N 37°44' E 023°43'714.2
2017-Nov-16 01:31N 37°37' E 023°46'814.1
2017-Nov-16 00:57N 37°29' E 023°44'1014.6
2017-Nov-16 00:17N 37°20' E 023°40'36810.2
2017-Nov-14 12:19N 37°51' E 015°58'516.7
2017-Nov-14 12:00N 37°52' E 015°52'1116.0
2017-Nov-14 11:20N 37°55' E 015°39'515.9
2017-Nov-14 11:00N 37°59' E 015°35'815.8
2017-Nov-14 10:30N 38°07' E 015°35'816.7
2017-Nov-14 10:00N 38°15' E 015°39'815.8
2017-Nov-14 09:30N 38°23' E 015°38'918.2
2017-Nov-14 09:00N 38°32' E 015°34'918.1
2017-Nov-14 08:30N 38°40' E 015°30'918.2
2017-Nov-14 08:00N 38°49' E 015°26'56411.1
2017-Nov-12 05:06N 40°26' E 003°25'716.6
2017-Nov-12 04:41N 40°25' E 003°16'416.5
2017-Nov-12 04:28N 40°24' E 003°12'816.3
2017-Nov-12 03:58N 40°23' E 003°01'816.9
2017-Nov-12 03:30N 40°22' E 002°51'917.6
2017-Nov-12 03:00N 40°20' E 002°40'211 6.8
2017-Nov-10 19:51N 37°44' W 000°23'1416.6
2017-Nov-10 19:00N 37°32' W 000°33'1016.3
2017-Nov-10 18:22N 37°25' W 000°42'616.1
2017-Nov-10 18:00N 37°22' W 000°48'816.2
2017-Nov-10 17:30N 37°16' W 000°55'21316.3
2017-Nov-10 04:24N 36°01' W 005°04'718.0
2017-Nov-10 04:01N 36°00' W 005°13'917.6
2017-Nov-10 03:31N 35°58' W 005°24'25614.7
2017-Nov-09 10:06N 38°13' W 009°57'518.0
2017-Nov-09 09:48N 38°18' W 009°58'518.0
2017-Nov-09 09:31N 38°23' W 009°59'917.9
2017-Nov-09 09:00N 38°32' W 010°02'918.0
2017-Nov-09 08:30N 38°41' W 010°04'1017.7
2017-Nov-09 07:56N 38°51' W 010°05'717.2
2017-Nov-09 07:31N 38°58' W 010°02'917.5
2017-Nov-09 07:00N 39°06' W 009°58'917.3
2017-Nov-09 06:30N 39°14' W 009°53'917.1
2017-Nov-09 06:00N 39°22' W 009°49'9917.6
2017-Nov-09 00:24N 40°51' W 008°55'717.9
2017-Nov-09 00:01N 40°58' W 008°51'917.8
2017-Nov-08 23:31N 41°06' W 008°46'611.9
2017-Nov-08 23:00N 41°11' W 008°42'1 1.5
2017-Nov-08 22:28N 41°12' W 008°41'0 0.0
2017-Nov-08 21:58N 41°12' W 008°41'0 0.0
2017-Nov-08 21:28N 41°12' W 008°41'0 0.0
2017-Nov-08 20:58N 41°12' W 008°41'0 0.0
2017-Nov-08 20:28N 41°12' W 008°41'0 0.0
2017-Nov-08 19:58N 41°12' W 008°41'0 0.0
2017-Nov-08 19:28N 41°12' W 008°41'0 0.0
2017-Nov-08 18:55N 41°12' W 008°41'0 0.0
2017-Nov-08 18:28N 41°12' W 008°41'0 0.0
2017-Nov-08 17:58N 41°12' W 008°41'0 0.0
2017-Nov-08 17:25N 41°12' W 008°41'0 0.0
2017-Nov-08 16:58N 41°12' W 008°41'0 0.0
2017-Nov-08 16:28N 41°12' W 008°41'0 0.0
2017-Nov-08 15:58N 41°12' W 008°41'0 0.0
2017-Nov-08 15:28N 41°12' W 008°41'0 0.0
2017-Nov-08 14:55N 41°12' W 008°41'0 0.0
2017-Nov-08 14:28N 41°12' W 008°41'0 0.0
2017-Nov-08 13:58N 41°12' W 008°41'0 0.4
2017-Nov-08 13:31N 41°11' W 008°41'2 4.7
2017-Nov-08 13:00N 41°10' W 008°43'2 3.4
2017-Nov-08 12:28N 41°10' W 008°45'0 0.1
2017-Nov-08 11:58N 41°10' W 008°45'0 0.0
2017-Nov-08 11:28N 41°10' W 008°45'0 0.0
2017-Nov-08 10:58N 41°10' W 008°45'0 0.0
2017-Nov-08 10:28N 41°10' W 008°45'0 0.0
2017-Nov-08 09:58N 41°10' W 008°46'0 0.0
2017-Nov-08 09:26N 41°10' W 008°46'0 0.0
2017-Nov-08 08:59N 41°10' W 008°46'0 0.0
2017-Nov-08 08:28N 41°10' W 008°46'0 0.0
2017-Nov-08 07:58N 41°10' W 008°46'0 0.0
2017-Nov-08 07:28N 41°10' W 008°46'0 0.0
2017-Nov-08 06:58N 41°10' W 008°46'0 0.0
2017-Nov-08 06:25N 41°10' W 008°46'0 0.0
2017-Nov-08 05:58N 41°10' W 008°45'0 0.0
2017-Nov-08 05:28N 41°10' W 008°45'0 0.1
2017-Nov-08 04:58N 41°10' W 008°46'0 0.0
2017-Nov-08 04:28N 41°10' W 008°46'0 0.0
2017-Nov-08 04:00N 41°10' W 008°45'0 0.0
2017-Nov-08 03:30N 41°10' W 008°46'0 0.0
2017-Nov-08 03:00N 41°10' W 008°45'0 0.0
2017-Nov-08 02:29N 41°10' W 008°46'0 0.0
2017-Nov-08 02:00N 41°10' W 008°46'1 2.1
2017-Nov-08 01:30N 41°11' W 008°45'  
Track history (hours):
 
Tides and Currents Weather Stations Pressure Air Temp Water Temp Dewpoint Dewpoint Depression Visibility Wind Speed Wind Dir Waves Ship Positions

Ruth Borchard

Last reported at 2017-Nov-16 14:32 UTC. Time now 2017-Nov-17 20:52 UTC.
Position N 37°28' E 023°52'.

Length 159 m; draft 7.8 m.

Type: Ship (hazmat cat A). MMSI: 538005024.

Date/timePositionNaut miles runAvg speedWind from/ knotsBaromVisibWave heightAir tempDewpointWater temp
2017-Nov-16 14:32N 37°28' E 023°52'116.0
2017-Nov-16 14:29N 37°29' E 023°51'816.0
2017-Nov-16 14:00N 37°35' E 023°46'816.2
2017-Nov-16 13:31N 37°42' E 023°41'816.3
2017-Nov-16 13:01N 37°50' E 023°37'713.7
2017-Nov-16 12:30N 37°56' E 023°36'1 1.7
2017-Nov-16 12:00N 37°57' E 023°36'0 0.0
2017-Nov-16 11:30N 37°57' E 023°36'0 0.0
2017-Nov-16 11:00N 37°57' E 023°36'0 0.0
2017-Nov-16 10:27N 37°57' E 023°36'0 0.0
2017-Nov-16 10:00N 37°57' E 023°36'0 0.0
2017-Nov-16 09:30N 37°57' E 023°36'0 0.0
2017-Nov-16 09:00N 37°57' E 023°36'0 0.0
2017-Nov-16 08:30N 37°57' E 023°36'0 0.0
2017-Nov-16 08:00N 37°57' E 023°36'0 0.0
2017-Nov-16 07:30N 37°57' E 023°36'0 0.0
2017-Nov-16 07:00N 37°57' E 023°36'0 0.0
2017-Nov-16 06:30N 37°57' E 023°36'1 2.9
2017-Nov-16 06:00N 37°56' E 023°36'0 0.3
2017-Nov-16 05:30N 37°56' E 023°36'3 5.1
2017-Nov-16 05:00N 37°54' E 023°35'0 0.6
2017-Nov-16 04:30N 37°54' E 023°35'0 0.9
2017-Nov-16 04:00N 37°53' E 023°36'1 1.1
2017-Nov-16 03:31N 37°53' E 023°36'3 5.4
2017-Nov-16 03:00N 37°51' E 023°38'4 8.4
2017-Nov-16 02:30N 37°47' E 023°41'4 8.0
2017-Nov-16 02:00N 37°44' E 023°43'714.2
2017-Nov-16 01:31N 37°37' E 023°46'814.1
2017-Nov-16 00:57N 37°29' E 023°44'1014.6
2017-Nov-16 00:17N 37°20' E 023°40'36810.2
2017-Nov-14 12:19N 37°51' E 015°58'516.7
2017-Nov-14 12:00N 37°52' E 015°52'1116.0
2017-Nov-14 11:20N 37°55' E 015°39'515.9
2017-Nov-14 11:00N 37°59' E 015°35'815.8
2017-Nov-14 10:30N 38°07' E 015°35'816.7
2017-Nov-14 10:00N 38°15' E 015°39'815.8
2017-Nov-14 09:30N 38°23' E 015°38'918.2
2017-Nov-14 09:00N 38°32' E 015°34'918.1
2017-Nov-14 08:30N 38°40' E 015°30'918.2
2017-Nov-14 08:00N 38°49' E 015°26'56411.1
2017-Nov-12 05:06N 40°26' E 003°25'716.6
2017-Nov-12 04:41N 40°25' E 003°16'416.5
2017-Nov-12 04:28N 40°24' E 003°12'816.3
2017-Nov-12 03:58N 40°23' E 003°01'816.9
2017-Nov-12 03:30N 40°22' E 002°51'917.6
2017-Nov-12 03:00N 40°20' E 002°40'211 6.8
2017-Nov-10 19:51N 37°44' W 000°23'1416.6
2017-Nov-10 19:00N 37°32' W 000°33'1016.3
2017-Nov-10 18:22N 37°25' W 000°42'616.1
2017-Nov-10 18:00N 37°22' W 000°48'816.2
2017-Nov-10 17:30N 37°16' W 000°55'21316.3
2017-Nov-10 04:24N 36°01' W 005°04'718.0
2017-Nov-10 04:01N 36°00' W 005°13'917.6
2017-Nov-10 03:31N 35°58' W 005°24'25614.7
2017-Nov-09 10:06N 38°13' W 009°57'518.0
2017-Nov-09 09:48N 38°18' W 009°58'518.0
2017-Nov-09 09:31N 38°23' W 009°59'917.9
2017-Nov-09 09:00N 38°32' W 010°02'918.0
2017-Nov-09 08:30N 38°41' W 010°04'1017.7
2017-Nov-09 07:56N 38°51' W 010°05'717.2
2017-Nov-09 07:31N 38°58' W 010°02'917.5
2017-Nov-09 07:00N 39°06' W 009°58'917.3
2017-Nov-09 06:30N 39°14' W 009°53'917.1
2017-Nov-09 06:00N 39°22' W 009°49'9917.6
2017-Nov-09 00:24N 40°51' W 008°55'717.9
2017-Nov-09 00:01N 40°58' W 008°51'917.8
2017-Nov-08 23:31N 41°06' W 008°46'611.9
2017-Nov-08 23:00N 41°11' W 008°42'1 1.5
2017-Nov-08 22:28N 41°12' W 008°41'0 0.0
2017-Nov-08 21:58N 41°12' W 008°41'0 0.0
2017-Nov-08 21:28N 41°12' W 008°41'0 0.0
2017-Nov-08 20:58N 41°12' W 008°41'0 0.0
2017-Nov-08 20:28N 41°12' W 008°41'0 0.0
2017-Nov-08 19:58N 41°12' W 008°41'0 0.0
2017-Nov-08 19:28N 41°12' W 008°41'0 0.0
2017-Nov-08 18:55N 41°12' W 008°41'0 0.0
2017-Nov-08 18:28N 41°12' W 008°41'0 0.0
2017-Nov-08 17:58N 41°12' W 008°41'0 0.0
2017-Nov-08 17:25N 41°12' W 008°41'0 0.0
2017-Nov-08 16:58N 41°12' W 008°41'0 0.0
2017-Nov-08 16:28N 41°12' W 008°41'0 0.0
2017-Nov-08 15:58N 41°12' W 008°41'0 0.0
2017-Nov-08 15:28N 41°12' W 008°41'0 0.0
2017-Nov-08 14:55N 41°12' W 008°41'0 0.0
2017-Nov-08 14:28N 41°12' W 008°41'0 0.0
2017-Nov-08 13:58N 41°12' W 008°41'0 0.4
2017-Nov-08 13:31N 41°11' W 008°41'2 4.7
2017-Nov-08 13:00N 41°10' W 008°43'2 3.4
2017-Nov-08 12:28N 41°10' W 008°45'0 0.1
2017-Nov-08 11:58N 41°10' W 008°45'0 0.0
2017-Nov-08 11:28N 41°10' W 008°45'0 0.0
2017-Nov-08 10:58N 41°10' W 008°45'0 0.0
2017-Nov-08 10:28N 41°10' W 008°45'0 0.0
2017-Nov-08 09:58N 41°10' W 008°46'0 0.0
2017-Nov-08 09:26N 41°10' W 008°46'0 0.0
2017-Nov-08 08:59N 41°10' W 008°46'0 0.0
2017-Nov-08 08:28N 41°10' W 008°46'0 0.0
2017-Nov-08 07:58N 41°10' W 008°46'0 0.0
2017-Nov-08 07:28N 41°10' W 008°46'0 0.0
2017-Nov-08 06:58N 41°10' W 008°46'0 0.0
2017-Nov-08 06:25N 41°10' W 008°46'0 0.0
2017-Nov-08 05:58N 41°10' W 008°45'0 0.0
2017-Nov-08 05:28N 41°10' W 008°45'0 0.1
2017-Nov-08 04:58N 41°10' W 008°46'0 0.0
2017-Nov-08 04:28N 41°10' W 008°46'0 0.0
2017-Nov-08 04:00N 41°10' W 008°45'0 0.0
2017-Nov-08 03:30N 41°10' W 008°46'0 0.0
2017-Nov-08 03:00N 41°10' W 008°45'0 0.0
2017-Nov-08 02:29N 41°10' W 008°46'0 0.0
2017-Nov-08 02:00N 41°10' W 008°46'1 2.1
2017-Nov-08 01:30N 41°11' W 008°45'  

Dump ship's entire track history